Time;durP1;ratioP1;P1;durP2;ratioP2;P2;SDS_P1;SDS_P2;PMS_P1;PMS_P2;Temp;Humidity;BMP_temperature;BMP_pressure;BME280_temperature;BME280_humidity;BME280_pressure;Samples;Min_cycle;Max_cycle;Signal;HPM_P1;HPM_P2
2024/04/16 00:01:13;;;;;;;12.23;2.60;;;;;;;-146.27;60.55;46229.19;5473266;26;20001;-71
2024/04/16 00:03:39;;;;;;;8.48;1.58;;;;;;;-146.27;69.52;46171.47;5474867;26;20316;-72
2024/04/16 00:06:04;;;;;;;7.30;1.90;;;;;;;-146.27;72.18;46065.97;5449098;26;20067;-72
2024/04/16 00:08:30;;;;;;;15.38;2.05;;;;;;;-146.27;75.33;45950.50;5471498;26;20005;-72
2024/04/16 00:11:02;;;;;;;8.52;1.63;;;;;;;-146.27;75.75;45878.84;5458275;26;20031;-73
2024/04/16 00:13:28;;;;;;;7.45;1.55;;;;;;;-146.27;75.51;45805.19;5451841;26;20014;-72
2024/04/16 00:15:53;;;;;;;10.52;1.52;;;;;;;-146.27;75.75;45819.13;5479269;26;19994;-71
2024/04/16 00:18:19;;;;;;;7.15;1.05;;;;;;;-146.27;75.14;45795.25;5479273;26;20315;-73
2024/04/16 00:20:45;;;;;;;8.98;1.42;;;;;;;-146.27;75.55;45829.09;5454939;26;19999;-72
2024/04/16 00:23:10;;;;;;;8.02;1.10;;;;;;;-146.27;74.91;45755.44;5448351;26;19990;-73
2024/04/16 00:25:36;;;;;;;9.88;1.38;;;;;;;-146.27;74.84;45793.25;5468649;26;20062;-72
2024/04/16 00:28:01;;;;;;;7.43;1.30;;;;;;;-146.27;75.08;45795.25;5463731;26;20009;-72
2024/04/16 00:30:27;;;;;;;12.95;1.67;;;;;;;-146.27;73.75;45783.31;5461511;26;20006;-71
2024/04/16 00:32:53;;;;;;;9.07;0.85;;;;;;;-146.27;73.48;45775.34;5466774;26;19998;-73
2024/04/16 00:35:18;;;;;;;7.65;1.05;;;;;;;-146.27;72.76;45769.38;5452173;26;20015;-73
2024/04/16 00:37:44;;;;;;;15.52;2.25;;;;;;;-146.27;72.57;45821.13;5463406;26;20320;-71
2024/04/16 00:40:09;;;;;;;6.95;1.55;;;;;;;-146.27;72.12;45809.19;5463924;26;20006;-72
2024/04/16 00:42:35;;;;;;;7.15;1.00;;;;;;;-146.27;72.17;45807.19;5450416;26;20475;-71
2024/04/16 00:45:01;;;;;;;10.57;1.40;;;;;;;-146.27;71.88;45799.22;5480804;26;20009;-73
2024/04/16 00:47:27;;;;;;;9.30;1.27;;;;;;;-146.27;72.00;45805.19;5462956;26;20065;-73
2024/04/16 00:49:52;;;;;;;8.93;1.50;;;;;;;-146.27;72.33;45819.13;5462984;26;19995;-73
2024/04/16 00:52:18;;;;;;;6.35;1.40;;;;;;;-146.27;72.96;45843.03;5463455;26;19998;-73
2024/04/16 00:54:44;;;;;;;10.75;1.88;;;;;;;-146.27;72.26;45813.16;5481797;26;20070;-72
2024/04/16 00:57:09;;;;;;;8.02;1.38;;;;;;;-146.27;72.21;45799.22;5468930;26;20453;-72
2024/04/16 00:59:38;;;;;;;18.30;1.40;;;;;;;-146.27;71.48;45819.13;5481084;26;19990;-72
2024/04/16 01:02:04;;;;;;;13.02;1.80;;;;;;;-146.27;71.11;45761.41;5461734;26;19998;-68
2024/04/16 01:04:29;;;;;;;8.32;1.85;;;;;;;-146.27;71.81;45850.97;5463305;26;20039;-68
2024/04/16 01:06:55;;;;;;;10.32;1.83;;;;;;;-146.27;71.83;45793.25;5470812;26;20518;-69
2024/04/16 01:09:20;;;;;;;5.78;1.30;;;;;;;-146.27;72.23;45771.38;5464759;26;20007;-70
2024/04/16 01:11:49;;;;;;;1.98;0.68;;;;;;;-146.27;73.60;45757.44;5470111;26;19995;-69
2024/04/16 01:14:15;;;;;;;1.30;0.68;;;;;;;-146.27;75.80;45749.47;5466076;26;20002;-67
2024/04/16 01:16:41;;;;;;;4.18;1.15;;;;;;;-146.27;78.66;45687.78;5458960;26;20316;-68
2024/04/16 01:19:07;;;;;;;8.30;0.70;;;;;;;-146.27;80.37;45596.22;5454739;26;20006;-68
2024/04/16 01:21:32;;;;;;;5.75;0.70;;;;;;;-146.27;81.66;45488.75;5475231;26;19995;-70
2024/04/16 01:23:58;;;;;;;2.92;0.55;;;;;;;-146.27;83.98;45237.97;5472188;26;20480;-67
2024/04/16 01:26:23;;;;;;;5.28;0.68;;;;;;;-146.27;84.33;44975.28;5468757;26;19998;-67
2024/04/16 01:28:48;;;;;;;6.85;0.52;;;;;;;-146.27;84.54;44875.78;5463289;26;19999;-66
2024/04/16 01:31:14;;;;;;;3.08;0.70;;;;;;;-146.27;84.70;44772.31;5474839;26;20010;-67
2024/04/16 01:33:40;;;;;;;4.20;0.60;;;;;;;-146.27;85.56;44660.88;5462438;26;20009;-69
2024/04/16 01:36:06;;;;;;;0.90;0.52;;;;;;;-146.27;86.19;44577.31;5455075;26;19994;-68
2024/04/16 01:38:31;;;;;;;1.92;0.30;;;;;;;-146.27;85.44;44541.47;5461991;26;20006;-68
2024/04/16 01:40:57;;;;;;;1.67;0.60;;;;;;;-146.27;85.05;44577.31;5454959;26;19995;-69
2024/04/16 01:43:22;;;;;;;2.33;0.25;;;;;;;-146.27;84.51;44617.09;5456238;26;20010;-69
2024/04/16 01:45:47;;;;;;;8.70;0.63;;;;;;;-146.27;83.33;44654.91;5451867;26;23375;-69
2024/04/16 01:48:13;;;;;;;3.67;0.45;;;;;;;-146.27;83.63;44633.00;5470773;26;20075;-68
2024/04/16 01:50:38;;;;;;;3.55;0.50;;;;;;;-146.27;83.39;44589.25;5481733;26;20095;-69
2024/04/16 01:53:03;;;;;;;3.47;0.60;;;;;;;-146.27;83.88;44573.31;5476163;26;20002;-69
2024/04/16 01:55:29;;;;;;;11.90;0.90;;;;;;;-146.27;84.77;44525.56;5476300;26;20014;-67
2024/04/16 01:57:54;;;;;;;5.18;0.88;;;;;;;-146.27;84.45;44541.47;5460805;26;20350;-70
2024/04/16 02:00:19;;;;;;;2.42;0.55;;;;;;;-146.27;84.07;44557.41;5455665;26;20006;-68
2024/04/16 02:02:45;;;;;;;3.30;0.70;;;;;;;-146.27;84.06;44557.41;5479200;26;20396;-68
2024/04/16 02:05:10;;;;;;;2.30;0.73;;;;;;;-146.27;83.58;44555.41;5472204;26;20006;-69
2024/04/16 02:07:35;;;;;;;9.50;0.90;;;;;;;-146.27;83.72;44561.38;5482459;26;19998;-69
2024/04/16 02:10:01;;;;;;;2.38;0.47;;;;;;;-146.27;83.86;44557.41;5477670;26;20020;-71
2024/04/16 02:12:26;;;;;;;1.00;0.50;;;;;;;-146.27;83.53;44545.47;5468149;26;20485;-68
2024/04/16 02:14:51;;;;;;;3.58;0.65;;;;;;;-146.27;83.15;44553.41;5463593;26;20005;-67
2024/04/16 02:17:17;;;;;;;0.57;0.47;;;;;;;-146.27;82.98;44561.38;5473477;26;20483;-68
2024/04/16 02:19:43;;;;;;;4.80;0.68;;;;;;;-146.27;83.78;44513.63;5452639;26;19995;-69
2024/04/16 02:22:08;;;;;;;6.63;0.88;;;;;;;-146.27;84.03;44495.72;5462998;26;19994;-69
2024/04/16 02:24:34;;;;;;;5.55;1.48;;;;;;;-146.27;84.75;44473.84;5507416;26;20325;-70
2024/04/16 02:26:59;;;;;;;8.18;1.48;;;;;;;-146.27;85.01;44422.09;5483354;26;20466;-68
2024/04/16 02:29:27;;;;;;;11.88;1.27;;;;;;;-146.27;85.29;44338.53;5475945;26;19995;-69
2024/04/16 02:31:52;;;;;;;8.77;1.60;;;;;;;-146.27;85.16;44346.50;5455064;26;20007;-68
2024/04/16 02:34:18;;;;;;;7.18;2.00;;;;;;;-146.27;84.52;44354.44;5466604;26;20013;-70
2024/04/16 02:36:44;;;;;;;7.80;1.60;;;;;;;-146.27;85.14;44342.50;5450902;26;20002;-69
2024/04/16 02:39:09;;;;;;;12.23;2.80;;;;;;;-146.27;84.07;44340.53;5451515;26;20513;-69
2024/04/16 02:41:34;;;;;;;14.45;2.28;;;;;;;-146.27;82.99;44354.44;5455891;26;20453;-70
2024/04/16 02:44:00;;;;;;;13.30;2.92;;;;;;;-146.27;82.66;44398.22;5465717;26;19998;-68
2024/04/16 02:46:26;;;;;;;9.02;1.67;;;;;;;-146.27;82.46;44398.22;5458637;26;20045;-69
2024/04/16 02:48:51;;;;;;;16.42;1.70;;;;;;;-146.27;82.50;44438.00;5458510;26;20492;-69
2024/04/16 02:51:17;;;;;;;12.45;1.92;;;;;;;-146.27;81.33;44463.88;5466359;26;19997;-67
2024/04/16 02:53:42;;;;;;;7.43;1.25;;;;;;;-146.27;80.78;44457.91;5451245;25;20006;-70
2024/04/16 02:56:08;;;;;;;6.70;1.70;;;;;;;-146.27;80.45;44521.59;5456840;26;20068;-67
2024/04/16 02:58:33;;;;;;;6.28;1.67;;;;;;;-146.27;80.06;44537.50;5477419;26;20030;-68
2024/04/16 03:01:06;;;;;;;8.43;1.75;;;;;;;-146.27;80.50;44585.25;5465764;26;20007;-69
2024/04/16 03:03:36;;;;;;;7.25;2.05;;;;;;;-146.27;79.95;44551.44;5455664;26;20009;-69
2024/04/16 03:06:02;;;;;;;9.77;2.08;;;;;;;-146.27;79.23;44587.25;5466066;26;19999;-68
2024/04/16 03:08:28;;;;;;;10.57;1.77;;;;;;;-146.27;79.24;44569.34;5453108;26;20089;-68
2024/04/16 03:11:03;;;;;;;13.15;2.28;;;;;;;-146.27;79.15;44585.25;5455374;26;20407;-67
2024/04/16 03:13:28;;;;;;;13.57;1.92;;;;;;;-146.27;79.72;44637.00;5449057;26;20441;-72
2024/04/16 03:15:54;;;;;;;9.32;1.48;;;;;;;-146.27;79.91;44678.78;5473929;25;20006;-68
2024/04/16 03:18:20;;;;;;;11.82;2.42;;;;;;;-146.27;80.49;44597.19;5490954;26;19989;-69
2024/04/16 03:20:45;;;;;;;7.07;1.83;;;;;;;-146.27;80.97;44617.09;5490761;25;20010;-69
2024/04/16 03:23:11;;;;;;;7.55;1.35;;;;;;;-146.27;81.40;44637.00;5473167;25;20019;-67
2024/04/16 03:25:43;;;;;;;3.88;0.85;;;;;;;-146.27;81.60;44656.91;5459464;26;20014;-69
2024/04/16 03:28:09;;;;;;;7.88;1.05;;;;;;;-146.27;80.70;44674.81;5452628;26;19994;-67
2024/04/16 03:30:34;;;;;;;4.85;0.82;;;;;;;-146.27;83.04;44688.72;5487679;26;20006;-69
2024/04/16 03:33:00;;;;;;;6.82;0.93;;;;;;;-146.27;83.71;44609.13;5470117;26;19990;-68
2024/04/16 03:35:25;;;;;;;4.10;1.33;;;;;;;-146.27;83.63;44525.56;5466691;26;20050;-68
2024/04/16 03:37:51;;;;;;;4.50;1.17;;;;;;;-146.27;83.40;44489.75;5456775;26;20010;-66
2024/04/16 03:40:16;;;;;;;7.32;1.45;;;;;;;-146.27;84.63;44430.06;5458438;26;19999;-68
2024/04/16 03:42:42;;;;;;;10.68;2.00;;;;;;;-146.27;85.38;44364.41;5467325;26;20001;-68
2024/04/16 03:45:07;;;;;;;7.13;1.45;;;;;;;-146.27;85.48;44270.88;5452035;26;20007;-66
2024/04/16 03:47:33;;;;;;;10.90;2.05;;;;;;;-146.27;86.57;44227.09;5464131;26;20006;-68
2024/04/16 03:49:58;;;;;;;7.00;1.20;;;;;;;-146.27;86.72;44139.56;5473904;26;20101;-70
2024/04/16 03:52:25;;;;;;;7.78;1.27;;;;;;;-146.27;87.55;44075.91;5450554;26;20002;-68
2024/04/16 03:54:50;;;;;;;4.78;0.98;;;;;;;-146.27;87.64;44050.03;5448380;26;20402;-69
2024/04/16 03:57:16;;;;;;;9.68;0.85;;;;;;;-146.27;87.51;44044.06;5473087;26;20013;-70
2024/04/16 04:02:19;;;;;;;3.17;0.52;;;;;;;-146.27;88.10;43968.47;5462983;26;19999;-68
2024/04/16 04:04:45;;;;;;;6.53;0.90;;;;;;;-146.27;88.98;43886.91;5469262;26;20447;-69
2024/04/16 04:07:10;;;;;;;11.18;1.10;;;;;;;-146.27;89.94;43791.41;5462055;26;20003;-74
2024/04/16 04:09:36;;;;;;;8.32;1.65;;;;;;;-146.27;89.73;43727.75;5450674;26;20079;-69
2024/04/16 04:12:01;;;;;;;5.30;0.95;;;;;;;-146.27;89.11;43737.69;5457838;26;20391;-71
2024/04/16 04:14:26;;;;;;;3.08;0.85;;;;;;;-146.27;89.05;43670.06;5463232;26;19990;-71
2024/04/16 04:16:52;;;;;;;8.07;1.10;;;;;;;-146.27;88.57;43654.13;5473035;26;20016;-69
2024/04/16 04:19:17;;;;;;;4.55;1.00;;;;;;;-146.27;89.66;43658.13;5449292;26;20397;-69
2024/04/16 04:21:42;;;;;;;17.25;1.27;;;;;;;-146.27;89.59;43626.28;5465212;26;20075;-69
2024/04/16 04:24:08;;;;;;;13.27;1.45;;;;;;;-146.27;89.78;43590.47;5497542;26;19998;-69
2024/04/16 04:26:33;;;;;;;13.20;1.23;;;;;;;-146.27;89.55;43546.72;5501848;25;20030;-69
2024/04/16 04:28:58;;;;;;;12.43;1.20;;;;;;;-146.27;89.56;43512.91;5450804;26;19995;-69
2024/04/16 04:31:24;;;;;;;10.65;1.55;;;;;;;-146.27;90.49;43487.03;5476771;26;20311;-70
2024/04/16 04:33:50;;;;;;;8.40;1.23;;;;;;;-146.27;90.72;43383.59;5466228;26;19999;-68
2024/04/16 04:36:15;;;;;;;20.55;2.28;;;;;;;-146.27;91.74;43321.94;5467290;26;20315;-69
2024/04/16 04:38:41;;;;;;;23.55;3.55;;;;;;;-146.27;91.25;43276.19;5470660;26;19998;-70
2024/04/16 04:41:08;;;;;;;13.80;2.53;;;;;;;-146.27;92.44;43200.59;5463140;26;20048;-69
2024/04/16 04:43:34;;;;;;;20.90;2.90;;;;;;;-146.27;92.51;43162.78;5470460;26;20402;-69
2024/04/16 04:45:59;;;;;;;21.67;2.28;;;;;;;-146.27;91.70;43093.19;5460625;26;20048;-69
2024/04/16 04:48:25;;;;;;;15.95;2.25;;;;;;;-146.27;91.40;43045.44;5467438;26;20043;-70
2024/04/16 04:50:50;;;;;;;23.80;2.40;;;;;;;-146.27;92.01;43055.38;5473845;26;20064;-70
2024/04/16 04:53:17;;;;;;;18.67;3.33;;;;;;;-146.27;91.32;43029.53;5450932;26;20455;-71
2024/04/16 04:55:43;;;;;;;14.10;2.33;;;;;;;-146.27;91.45;43047.44;5474758;26;20040;-70
2024/04/16 04:58:08;;;;;;;16.63;2.72;;;;;;;-146.27;90.75;42985.78;5459285;26;20005;-69
2024/04/16 05:00:33;;;;;;;12.43;2.35;;;;;;;-146.27;91.21;42985.78;5459338;26;20009;-69
2024/04/16 05:02:59;;;;;;;17.65;2.50;;;;;;;-146.27;90.43;43053.41;5469532;26;19991;-70
2024/04/16 05:05:24;;;;;;;10.93;3.00;;;;;;;-146.27;89.73;43109.09;5463851;26;20011;-69
2024/04/16 05:07:49;;;;;;;22.77;2.65;;;;;;;-146.27;89.34;43132.97;5474574;26;20006;-69
2024/04/16 05:10:15;;;;;;;23.23;3.10;;;;;;;-146.27;88.72;43186.66;5473931;26;20042;-69
2024/04/16 05:12:40;;;;;;;12.95;1.95;;;;;;;-146.27;88.25;43196.63;5486865;26;20032;-70
2024/04/16 05:15:05;;;;;;;16.42;4.15;;;;;;;-146.27;87.78;43284.13;5478445;26;19997;-69
2024/04/16 05:17:31;;;;;;;20.30;2.40;;;;;;;-146.27;87.97;43401.50;5453728;26;20007;-70
2024/04/16 05:19:56;;;;;;;11.02;2.25;;;;;;;-146.27;87.47;43431.34;5469081;26;20469;-70
2024/04/16 05:22:21;;;;;;;21.67;2.13;;;;;;;-146.27;86.59;43524.84;5484971;25;20070;-70
2024/04/16 05:24:47;;;;;;;9.80;1.83;;;;;;;-146.27;85.73;43634.25;5472505;26;20062;-70
2024/04/16 05:27:12;;;;;;;9.45;1.63;;;;;;;-146.27;84.91;43723.75;5454257;26;20006;-69
2024/04/16 05:29:37;;;;;;;11.07;1.75;;;;;;;-146.27;84.80;43739.69;5458975;26;20492;-70
2024/04/16 05:32:04;;;;;;;10.88;2.25;;;;;;;-146.27;84.53;43857.06;5452931;26;20025;-70
2024/04/16 05:34:30;;;;;;;14.90;1.85;;;;;;;-146.27;84.21;43900.81;5483033;26;20004;-70
2024/04/16 05:36:55;;;;;;;12.75;1.70;;;;;;;-146.27;83.83;43896.84;5467893;26;19995;-70
2024/04/16 05:39:21;;;;;;;10.77;1.73;;;;;;;-146.27;83.87;43980.41;5460495;26;19998;-69
2024/04/16 05:41:46;;;;;;;9.00;1.70;;;;;;;-146.27;83.55;44044.06;5481961;26;20443;-70
2024/04/16 05:44:11;;;;;;;9.63;2.10;;;;;;;-146.27;83.46;44127.63;5464400;26;20066;-69
2024/04/16 05:46:37;;;;;;;16.10;1.90;;;;;;;-146.27;82.63;44276.84;5449892;26;20006;-69
2024/04/16 05:49:02;;;;;;;13.60;1.80;;;;;;;-146.27;82.31;44288.78;5453042;26;20426;-70
2024/04/16 05:51:27;;;;;;;14.27;2.40;;;;;;;-146.27;82.03;44312.66;5479324;26;20470;-72
2024/04/16 05:53:53;;;;;;;10.27;2.13;;;;;;;-146.27;82.57;44346.50;5476851;26;20314;-71
2024/04/16 05:56:18;;;;;;;22.77;3.63;;;;;;;-146.27;82.41;44270.88;5450631;26;20013;-72
2024/04/16 05:58:44;;;;;;;23.20;2.38;;;;;;;-146.27;83.91;44245.00;5473336;26;20063;-71
2024/04/16 06:01:09;;;;;;;12.32;2.45;;;;;;;-146.27;84.82;44243.03;5457217;26;20010;-71
2024/04/16 06:03:34;;;;;;;10.70;2.90;;;;;;;-146.27;85.15;44239.03;5474163;26;20058;-71
2024/04/16 06:06:00;;;;;;;12.55;2.95;;;;;;;-146.27;85.03;44250.97;5478250;26;20006;-72
2024/04/16 06:08:25;;;;;;;16.67;1.75;;;;;;;-146.27;84.69;44256.94;5451012;26;20005;-74
2024/04/16 06:10:51;;;;;;;16.90;2.78;;;;;;;-146.27;83.97;44262.91;5467236;26;20439;-72
2024/04/16 06:13:16;;;;;;;11.70;2.28;;;;;;;-146.27;82.98;44322.63;5470725;26;19995;-72
2024/04/16 06:15:41;;;;;;;18.20;2.35;;;;;;;-146.27;82.25;44306.69;5471594;26;20002;-72
2024/04/16 06:18:09;;;;;;;16.50;2.83;;;;;;;-146.27;82.84;44215.16;5479739;26;20026;-72
2024/04/16 06:20:35;;;;;;;5.93;1.52;;;;;;;-146.27;84.76;44231.09;5469249;26;20009;-76
2024/04/16 06:23:01;;;;;;;2.85;1.10;;;;;;;-146.27;84.80;44278.84;5469091;26;20284;-73
2024/04/16 06:25:27;;;;;;;8.07;1.00;;;;;;;-146.27;84.72;44364.41;5461783;26;20006;-73
2024/04/16 06:27:54;;;;;;;9.25;1.30;;;;;;;-146.27;86.44;44394.25;5459489;26;20003;-73
2024/04/16 06:30:21;;;;;;;9.85;1.90;;;;;;;-146.27;86.88;44318.63;5486107;26;20030;-73
2024/04/16 06:32:47;;;;;;;15.90;2.88;;;;;;;-146.27;87.82;44239.03;5486502;26;19998;-72
2024/04/16 06:35:13;;;;;;;19.88;2.92;;;;;;;-146.27;88.38;44155.47;5463750;26;20041;-73
2024/04/16 06:37:38;;;;;;;12.52;2.38;;;;;;;-146.27;88.79;44109.72;5467777;26;20007;-72
2024/04/16 06:40:04;;;;;;;21.40;3.08;;;;;;;-146.27;88.38;44046.06;5469374;26;20032;-72
2024/04/16 06:42:30;;;;;;;14.75;3.15;;;;;;;-146.27;88.31;44111.72;5454865;26;20006;-73
2024/04/16 06:44:56;;;;;;;12.07;2.45;;;;;;;-146.27;88.21;44087.84;5453379;26;20002;-72
2024/04/16 06:47:21;;;;;;;22.83;2.60;;;;;;;-146.27;87.70;44030.13;5473643;26;19993;-73
2024/04/16 06:49:47;;;;;;;20.65;2.38;;;;;;;-146.27;87.54;44036.09;5484388;26;20876;-72
2024/04/16 06:52:12;;;;;;;22.55;3.60;;;;;;;-146.27;87.62;44135.59;5485750;26;20365;-72
2024/04/16 06:54:38;;;;;;;25.10;4.10;;;;;;;-146.27;87.94;44147.53;5485432;26;20451;-73
2024/04/16 06:57:03;;;;;;;24.48;3.42;;;;;;;-146.27;87.46;44099.78;5483782;26;19994;-71
2024/04/16 06:59:29;;;;;;;19.75;3.03;;;;;;;-146.27;86.64;44006.25;5485775;26;20009;-72
2024/04/16 07:01:54;;;;;;;12.95;2.40;;;;;;;-146.27;85.22;44103.75;5456205;26;20438;-72
2024/04/16 07:04:19;;;;;;;11.43;2.47;;;;;;;-146.27;84.07;44219.16;5449587;26;19991;-72
2024/04/16 07:06:45;;;;;;;10.77;1.58;;;;;;;-146.27;83.73;44308.69;5449540;26;20780;-73
2024/04/16 07:09:10;;;;;;;12.95;2.80;;;;;;;-146.27;83.61;44282.81;5447857;26;19995;-71
2024/04/16 07:11:38;;;;;;;16.45;2.40;;;;;;;-146.27;83.91;44262.91;5449721;26;20044;-72
2024/04/16 07:14:03;;;;;;;16.50;2.80;;;;;;;-146.27;84.04;44245.00;5449545;26;19995;-72
2024/04/16 07:16:29;;;;;;;17.08;1.80;;;;;;;-146.27;82.63;44219.16;5464547;26;20409;-75
2024/04/16 07:18:54;;;;;;;15.02;1.88;;;;;;;-146.27;82.25;44324.59;5483300;26;19994;-72
2024/04/16 07:21:20;;;;;;;12.50;2.20;;;;;;;-146.27;82.01;44412.16;5485643;26;20073;-75
2024/04/16 07:23:45;;;;;;;17.38;2.25;;;;;;;-146.27;81.25;44366.38;5472054;26;20009;-72
2024/04/16 07:26:11;;;;;;;18.00;2.50;;;;;;;-146.27;81.77;44398.22;5449265;26;19994;-72
2024/04/16 07:28:36;;;;;;;11.32;1.60;;;;;;;-146.27;81.83;44382.31;5477612;26;19995;-73
2024/04/16 07:31:01;;;;;;;19.20;2.25;;;;;;;-146.27;82.27;44247.00;5464037;26;19995;-72
2024/04/16 07:33:27;;;;;;;16.05;2.83;;;;;;;-146.27;83.00;44207.22;5447020;26;19998;-73
2024/04/16 07:35:54;;;;;;;19.85;2.53;;;;;;;-146.27;83.11;44290.78;5453349;26;20379;-73
2024/04/16 07:38:20;;;;;;;15.75;2.20;;;;;;;-146.27;83.55;44290.78;5466604;26;20327;-72
2024/04/16 07:40:55;;;;;;;22.55;3.42;;;;;;;-146.27;83.58;44340.53;5485412;26;20005;-73
2024/04/16 07:43:23;;;;;;;15.52;2.40;;;;;;;-146.27;83.96;44374.34;5452630;26;19999;-73
2024/04/16 07:45:49;;;;;;;17.25;2.40;;;;;;;-146.27;83.40;44408.16;5448833;26;20006;-71
2024/04/16 07:48:15;;;;;;;14.30;2.50;;;;;;;-146.27;83.39;44328.59;5448475;26;19991;-72
2024/04/16 07:50:42;;;;;;;13.60;2.58;;;;;;;-146.27;82.21;44348.47;5448794;26;20332;-73
2024/04/16 07:53:07;;;;;;;20.10;3.05;;;;;;;-146.27;81.93;44318.63;5452522;26;20043;-72
2024/04/16 07:55:32;;;;;;;12.27;1.95;;;;;;;-146.27;81.59;44278.84;5476546;26;20634;-71
2024/04/16 07:57:58;;;;;;;12.45;1.85;;;;;;;-146.27;82.29;44354.44;5481946;26;19990;-73
2024/04/16 08:00:28;;;;;;;13.02;1.77;;;;;;;-146.27;82.78;44334.56;5460009;26;20002;-74
2024/04/16 08:02:54;;;;;;;14.77;2.13;;;;;;;-146.27;83.69;44340.53;5462855;26;20024;-73
2024/04/16 08:05:19;;;;;;;20.17;2.50;;;;;;;-146.27;83.61;44314.66;5459084;26;20009;-74
2024/04/16 08:07:45;;;;;;;13.18;2.53;;;;;;;-146.27;84.34;44294.75;5487493;26;19994;-74
2024/04/16 08:10:11;;;;;;;8.52;2.00;;;;;;;-146.27;83.01;44306.69;5485844;26;19998;-72
2024/04/16 08:12:37;;;;;;;19.73;2.15;;;;;;;-146.27;82.15;44358.44;5470485;26;20014;-70
2024/04/16 08:15:04;;;;;;;6.68;1.58;;;;;;;-146.27;81.10;44398.22;5469428;26;20384;-71
2024/04/16 08:17:29;;;;;;;9.05;2.03;;;;;;;-146.27;80.08;44438.00;5474492;26;20030;-72
2024/04/16 08:19:55;;;;;;;15.15;1.70;;;;;;;-146.27;80.72;44418.13;5467897;26;20009;-71
2024/04/16 08:22:20;;;;;;;15.52;2.78;;;;;;;-146.27;80.16;44378.31;5460833;26;20067;-71
2024/04/16 08:24:46;;;;;;;17.50;2.58;;;;;;;-146.27;80.10;44278.84;5474405;26;20035;-71
2024/04/16 08:27:11;;;;;;;17.05;2.70;;;;;;;-146.27;79.58;44322.63;5487940;26;20022;-70
2024/04/16 08:29:36;;;;;;;12.27;2.05;;;;;;;-146.27;80.03;44370.38;5469513;26;20038;-72
2024/04/16 08:32:02;;;;;;;16.40;2.75;;;;;;;-146.27;80.73;44374.34;5453537;26;20010;-72
2024/04/16 08:34:27;;;;;;;14.85;2.38;;;;;;;-146.27;81.25;44412.16;5473960;26;20070;-72
2024/04/16 08:36:53;;;;;;;8.77;2.00;;;;;;;-146.27;81.54;44477.81;5488097;26;20001;-72
2024/04/16 08:39:18;;;;;;;18.80;2.47;;;;;;;-146.27;81.24;44436.03;5488243;26;20009;-75
2024/04/16 08:41:44;;;;;;;16.85;2.47;;;;;;;-146.27;81.29;44402.19;5488037;26;19990;-73
2024/04/16 08:44:11;;;;;;;16.35;2.28;;;;;;;-146.27;81.43;44412.16;5487738;26;19990;-73
2024/04/16 08:46:37;;;;;;;15.25;2.30;;;;;;;-146.27;81.00;44370.38;5463777;26;20065;-72
2024/04/16 08:49:04;;;;;;;18.02;2.63;;;;;;;-146.27;80.18;44398.22;5469113;26;19999;-71
2024/04/16 08:51:32;;;;;;;10.32;2.45;;;;;;;-146.27;80.86;44418.13;5452785;26;19998;-73
2024/04/16 08:53:59;;;;;;;15.52;2.92;;;;;;;-146.27;80.84;44370.38;5454077;26;20017;-72
2024/04/16 08:56:25;;;;;;;19.27;1.90;;;;;;;-146.27;80.34;44360.41;5471548;26;20759;-70
2024/04/16 08:58:51;;;;;;;18.17;2.65;;;;;;;-146.27;80.48;44324.59;5451087;26;20837;-72
2024/04/16 09:01:17;;;;;;;14.95;3.03;;;;;;;-146.27;80.35;44298.75;5452869;26;19999;-72
2024/04/16 09:03:43;;;;;;;9.18;2.13;;;;;;;-146.27;80.51;44286.78;5451271;26;20010;-72
2024/04/16 09:06:08;;;;;;;20.55;2.38;;;;;;;-146.27;82.26;44300.72;5453146;26;20007;-72
2024/04/16 09:08:35;;;;;;;16.88;2.85;;;;;;;-146.27;82.93;44284.81;5453136;26;19998;-71
2024/04/16 09:11:00;;;;;;;10.60;1.90;;;;;;;-146.27;83.69;44290.78;5453466;26;19991;-70
2024/04/16 09:13:26;;;;;;;15.70;2.33;;;;;;;-146.27;84.26;44247.00;5473435;26;20438;-72
2024/04/16 09:15:51;;;;;;;7.95;1.85;;;;;;;-146.27;83.99;44304.72;5460063;26;19998;-70
2024/04/16 09:18:23;;;;;;;14.68;2.10;;;;;;;-146.27;83.19;44229.09;5450850;26;20009;-72
2024/04/16 09:20:48;;;;;;;12.63;2.22;;;;;;;-146.27;82.60;44268.88;5451106;26;20003;-70
2024/04/16 09:23:14;;;;;;;18.42;2.58;;;;;;;-146.27;82.11;44227.09;5453159;26;20010;-72
2024/04/16 09:25:42;;;;;;;9.77;2.05;;;;;;;-146.27;81.26;44358.44;5482868;26;20126;-72
2024/04/16 09:28:07;;;;;;;15.65;2.38;;;;;;;-146.27;79.93;44334.56;5471397;26;20436;-70
2024/04/16 09:30:33;;;;;;;11.82;2.22;;;;;;;-146.27;79.61;44316.66;5481926;26;19997;-73
2024/04/16 09:33:01;;;;;;;18.73;2.47;;;;;;;-146.27;79.39;44314.66;5460550;26;19998;-73
2024/04/16 09:35:31;;;;;;;13.27;2.20;;;;;;;-146.27;79.17;44316.66;5451013;26;20056;-71
2024/04/16 09:38:03;;;;;;;14.52;2.28;;;;;;;-146.27;79.96;44372.34;5451500;26;19994;-71
2024/04/16 09:40:29;;;;;;;10.27;2.33;;;;;;;-146.27;80.02;44318.63;5464965;26;20009;-71
2024/04/16 09:42:57;;;;;;;11.88;2.72;;;;;;;-146.27;80.34;44306.69;5477116;26;20434;-71
2024/04/16 09:45:22;;;;;;;16.88;3.60;;;;;;;-146.27;81.13;44207.22;5474295;26;20152;-71
2024/04/16 09:47:49;;;;;;;9.60;2.10;;;;;;;-146.27;80.98;44278.84;5470845;26;20009;-72
2024/04/16 09:50:19;;;;;;;4.20;0.93;;;;;;;-146.27;80.13;44332.56;5456545;26;19990;-71
2024/04/16 09:52:44;;;;;;;12.40;1.48;;;;;;;-146.27;81.65;44370.38;5468304;26;20001;-72
2024/04/16 09:55:10;;;;;;;8.80;1.23;;;;;;;-146.27;82.60;44318.63;5459306;26;20002;-71
2024/04/16 09:57:37;;;;;;;4.15;0.90;;;;;;;-146.27;83.61;44274.84;5487009;26;19998;-71
2024/04/16 10:00:04;;;;;;;10.73;1.27;;;;;;;-146.27;84.86;44247.00;5467773;26;20006;-72
2024/04/16 10:02:31;;;;;;;9.60;1.92;;;;;;;-146.27;84.98;44223.13;5477727;26;19998;-71
2024/04/16 10:04:59;;;;;;;8.00;1.40;;;;;;;-146.27;86.00;44209.19;5462001;26;19994;-71
2024/04/16 10:07:24;;;;;;;11.63;1.85;;;;;;;-146.27;86.67;44157.47;5487006;26;20002;-71
2024/04/16 10:09:50;;;;;;;5.57;1.15;;;;;;;-146.27;86.86;44119.66;5477192;26;20350;-71
2024/04/16 10:12:16;;;;;;;14.05;1.75;;;;;;;-146.27;87.22;44071.91;5484968;26;20004;-72
2024/04/16 10:14:43;;;;;;;8.55;1.55;;;;;;;-146.27;87.16;44000.28;5454338;26;20043;-71
2024/04/16 10:17:12;;;;;;;9.05;2.03;;;;;;;-146.27;87.47;44004.28;5450432;26;20044;-72
2024/04/16 10:19:37;;;;;;;14.10;2.00;;;;;;;-146.27;87.24;43974.44;5467384;26;19997;-72
2024/04/16 10:22:03;;;;;;;19.13;2.35;;;;;;;-146.27;87.67;43954.53;5455482;26;20014;-72
2024/04/16 10:24:29;;;;;;;11.77;1.85;;;;;;;-146.27;87.41;43888.88;5449821;26;20393;-71
2024/04/16 10:26:57;;;;;;;9.77;1.75;;;;;;;-146.27;87.51;43892.88;5452337;26;20007;-71
2024/04/16 10:29:26;;;;;;;9.02;1.65;;;;;;;-146.27;87.62;43940.63;5485804;26;19998;-71
2024/04/16 10:31:54;;;;;;;5.68;1.15;;;;;;;-146.27;88.10;43976.41;5484717;26;20013;-69
2024/04/16 10:34:23;;;;;;;9.80;2.47;;;;;;;-146.27;88.12;43924.69;5457326;26;19998;-68
2024/04/16 10:36:50;;;;;;;10.82;1.73;;;;;;;-146.27;88.21;43896.84;5478309;26;20320;-68
2024/04/16 10:39:16;;;;;;;9.88;1.60;;;;;;;-146.27;88.42;43880.94;5464888;26;20019;-70
2024/04/16 10:41:55;;;;;;;17.20;2.28;;;;;;;-146.27;88.63;43853.06;5448807;26;19995;-67
2024/04/16 10:44:21;;;;;;;5.45;1.80;;;;;;;-146.27;88.48;43831.19;5452901;26;20008;-69
2024/04/16 10:46:51;;;;;;;10.57;2.15;;;;;;;-146.27;88.42;43870.97;5467411;26;20010;-73
2024/04/16 10:49:18;;;;;;;11.98;3.33;;;;;;;-146.27;88.99;43928.69;5460064;26;19995;-68
2024/04/16 10:51:46;;;;;;;11.32;2.03;;;;;;;-146.27;88.36;43900.81;5470747;26;20014;-70
2024/04/16 10:54:11;;;;;;;10.23;2.20;;;;;;;-146.27;87.92;43888.88;5454753;26;20320;-70
2024/04/16 10:56:38;;;;;;;11.45;2.17;;;;;;;-146.27;88.37;43920.72;5477813;26;20067;-70
2024/04/16 10:59:07;;;;;;;13.73;2.60;;;;;;;-146.27;88.68;43892.88;5449223;26;19991;-71
2024/04/16 11:01:42;;;;;;;11.70;2.75;;;;;;;-146.27;88.67;43857.06;5471523;26;19997;-69
2024/04/16 11:04:10;;;;;;;17.48;2.85;;;;;;;-146.27;88.52;43813.28;5486099;26;20346;-69
2024/04/16 11:06:36;;;;;;;12.20;2.83;;;;;;;-146.27;88.24;43863.03;5464643;26;20507;-70
2024/04/16 11:09:03;;;;;;;9.27;2.40;;;;;;;-146.27;88.84;43851.09;5471663;26;19994;-69